Tiempo atmosférico en la estación meteorológica de Benahavis, Málaga (399 m.)



Fecha
DESCASC
Temp. máxima en grados centígrados (hora)
DESCASC
Temp. mínima en grados centígrados (hora)
DESCASC
Temp. media en grados centígrados
DESCASC
Racha de viento máxima en m/sg (hora)
DESCASC
Velocidad máxima media en intervalos de 10 minutos(hora)
DESCASC
Precipitaciones diarias en mm
DESCASC
Precipitaciones de 00:00 a 06:00 en mm
DESCASC
Precipitaciones de 06:00 a 12:00 en mm
DESCASC
Precipitaciones de 12:00 a 18:00 en mm
DESCASC
Precipitaciones de 18:00 a 24:00 en mm
DESCASC
17-01-2021 17.5 (15:20) 5.1 (08:50) 11.3 3.33 (15:10) 1.94 (15:00) 0 0 0 0 0
16-01-2021 19.6 (13:30) 7.6 (23:59) 13.6 6.67 (13:40) 3.06 (13:40) 0 0 0 0 0
15-01-2021 20.7 (16:00) 6.7 (08:50) 13.7 6.39 (19:40) 4.17 (19:40) 0 0 0 0 0
14-01-2021 15.4 (16:40) 5.8 (04:30) 10.6 4.72 (13:50) 3.33 (13:50) 0 0 0 0 0
13-01-2021 16.6 (16:40) 3.5 (00:00) 10.1 3.89 (15:40) 2.22 (13:50) 0 0 0 0 0
12-01-2021 14.3 (17:10) 3.5 (00:00) 8.9 5.56 (14:40) 2.5 (13:50) 0 0 0 0 0
11-01-2021 12.8 (16:50) 3.7 (00:00) 8.3 6.39 (04:20) 3.61 (02:20) 3 2.6 0.4 0 0
10-01-2021 7.3 (13:20) 2.2 (03:20) 4.8 6.11 (04:10) 2.5 (04:10) 8.8 0 0 2 6.8
09-01-2021 11.6 (15:10) 3.6 (00:00) 7.6 17.5 (02:40) 7.5 (02:50) 1.4 0.2 0 0 1.2
08-01-2021 10.8 (21:40) 8.6 (00:00) 9.7 12.22 (15:20) 5.83 (15:20) -- -- -- 39 32.8
07-01-2021 9.6 (14:30) 7 (00:00) 8.3 14.44 (01:00) 7.5 (01:30) -- -- -- -- --
06-01-2021 8.7 (14:10) 6.8 (00:00) 7.8 11.11 (23:59) 5.83 (23:59) -- -- -- -- --
05-01-2021 12.1 (14:00) 5.3 (00:00) 8.7 6.11 (00:20) 3.33 (00:30) -- -- -- -- --
04-01-2021 15.1 (15:40) 3 (00:00) 9.1 8.61 (14:30) 4.72 (04:40) -- -- -- -- --
03-01-2021 13.8 (16:30) 2 (00:00) 7.9 9.17 (01:20) 3.89 (01:10) -- -- -- -- --
02-01-2021 13.9 (15:30) 3.4 (00:00) 8.6 10 (15:10) 4.72 (15:00) -- -- -- -- --
01-01-2021 14.2 (15:20) 6.6 (00:00) 10.4 13.89 (09:40) 4.72 (16:00) -- -- -- -- --
31-12-2020 15.5 (16:30) 4 (00:00) 9.8 7.5 (22:30) 4.72 (22:40) -- -- -- -- --
30-12-2020 14.6 (16:40) 4 (00:00) 9.3 10 (03:00) 5.56 (03:00) -- -- -- -- --
29-12-2020 13.9 (14:50) 5.9 (00:00) 9.9 12.78 (01:40) 5.28 (01:20) -- -- -- -- --
28-12-2020 13.1 (13:50) 9.1 (00:00) 11.1 17.5 (08:30) 8.61 (04:30) -- -- -- -- --
27-12-2020 15.4 (17:00) 5 (00:00) 10.2 7.78 (23:59) 4.72 (23:59) -- -- -- -- --
26-12-2020 12.8 (15:00) 7.3 (00:00) 10.1 6.39 (00:40) 2.5 (16:20) -- -- -- -- --
25-12-2020 16.5 (13:00) 9.7 (00:00) 13.1 6.39 (21:50) 3.33 (21:50) -- -- -- -- --
24-12-2020 19.2 (15:30) 9.7 (00:00) 14.5 6.94 (23:59) 3.33 (23:59) -- -- -- -- --
23-12-2020 18.3 (15:40) 8.6 (00:00) 13.4 5 (13:20) 2.78 (13:10) -- -- -- -- --
22-12-2020 18.3 (16:10) 9.1 (00:00) 13.7 3.89 (11:40) 2.22 (15:00) -- -- -- -- --
21-12-2020 18 (14:10) 9 (00:00) 13.5 4.72 (13:40) 2.22 (14:30) -- -- -- -- --

Gráficas

Temp. máximas Temp. mínimas Temp. medias Precipitaciones Rachas de viento máximas Velocidades máximas media en intervalos de 10 minutos

Datos horarios

Fecha y hora oficial Temperatura (ºC) Velocidad del viento (km/h) Dirección del viento Racha (km/h) Dirección de racha Precipitación (mm) Presión (hPa) Tendencia (hPa) Humedad (%)
2021-01-19 23:00:00 6.8 0 Calma 2 Sur 0 -- -- 96
2021-01-19 22:00:00 7.2 0 Calma 3 Nordeste 0 -- -- 96
2021-01-19 21:00:00 7.6 0 Calma 2 Sudeste 0 -- -- 95
2021-01-19 20:00:00 8.3 0 Calma 3 Sudeste 0 -- -- 91
2021-01-19 19:00:00 10.4 0 Calma 9 Sudoeste 0 -- -- 83
2021-01-19 18:00:00 13.7 4 Sur 11 Sudoeste 0 -- -- 72
2021-01-19 17:00:00 14.9 6 Sudoeste 14 Sudoeste 0 -- -- 68
2021-01-19 16:00:00 15.4 6 Sudoeste 16 Sudoeste 0 -- -- 65
2021-01-19 15:00:00 15.4 9 Sudoeste 16 Sudoeste 0 -- -- 67
2021-01-19 14:00:00 15 3 Sudoeste 15 Sudoeste 0 -- -- 64
2021-01-19 13:00:00 14 6 Sudoeste 12 Oeste 0 -- -- 70
2021-01-19 12:00:00 11.9 4 Sudoeste 7 Sudoeste 0 -- -- 77
2021-01-19 11:00:00 10.1 4 Sudoeste 6 Sudoeste 0 -- -- 85
2021-01-19 10:00:00 7.9 0 Calma 3 Nordeste 0 -- -- 96
2021-01-19 09:00:00 7 2 Nordeste 3 Este 0 -- -- 98
2021-01-19 08:00:00 6.6 0 Calma 2 Este 0 -- -- 97
2021-01-19 07:00:00 6.7 0 Calma 3 Sudeste 0 -- -- 97
2021-01-19 06:00:00 6.3 0 Calma 3 Este 0 -- -- 96
2021-01-19 05:00:00 6 2 Este 6 Nordeste 0 -- -- 85
2021-01-19 04:00:00 5.6 0 Calma 3 Sur 0 -- -- 92
2021-01-19 03:00:00 5.9 0 Calma 3 Sudeste 0 -- -- 92
2021-01-19 02:00:00 6.1 0 Calma 3 Nordeste 0 -- -- 93
2021-01-19 01:00:00 6.4 2 Este 5 Nordeste 0 -- -- 80
2021-01-19 00:00:00 6.6 0 Calma 4 Nordeste 0 -- -- 83
2021-01-18 23:00:00 6.9 0 Calma 3 Este 0 -- -- 86
2021-01-18 22:00:00 7.3 0 Calma 4 Nordeste 0 -- -- 89
2021-01-18 21:00:00 8 0 Calma 4 Nordeste 0 -- -- 93
2021-01-18 20:00:00 8.9 0 Calma 2 Sudeste 0 -- -- 91
2021-01-18 19:00:00 10.4 0 Calma 6 Este 0 -- -- 87
2021-01-18 18:00:00 12.6 5 Nordeste 8 Este 0 -- -- 81
2021-01-18 17:00:00 14 3 Nordeste 9 Nordeste 0 -- -- 70
2021-01-18 16:00:00 14.7 4 Este 10 Nordeste 0 -- -- 70
2021-01-18 15:00:00 16.9 6 Sudoeste 19 Oeste 0 -- -- 64
2021-01-18 14:00:00 16.1 3 Nordeste 11 Sudoeste 0 -- -- 62
2021-01-18 13:00:00 15.8 5 Sudoeste 9 Sudoeste 0 -- -- 69
2021-01-18 12:00:00 13.5 4 Sudoeste 6 Sudoeste 0 -- -- 70
2021-01-18 11:00:00 11 0 Calma 2 Sudoeste 0 -- -- 57
2021-01-18 10:00:00 8.2 0 Calma 5 Nordeste 0 -- -- 55
2021-01-18 09:00:00 7.6 5 Nordeste 8 Nordeste 0 -- -- 54
2021-01-18 08:00:00 8.3 0 Calma 5 Nordeste 0 -- -- 52
2021-01-18 07:00:00 8 0 Calma 6 Este 0 -- -- 52
2021-01-18 06:00:00 8.4 0 Calma 5 Nordeste 0 -- -- 51
2021-01-18 05:00:00 8.3 3 Este 7 Nordeste 0 -- -- 53
2021-01-18 04:00:00 8.4 2 Sudeste 7 Nordeste 0 -- -- 50
2021-01-18 03:00:00 8.4 4 Nordeste 9 Nordeste 0 -- -- 54
2021-01-18 02:00:00 9.5 0 Calma 10 Este 0 -- -- 50
2021-01-18 01:00:00 8.7 0 Calma 3 Este 0 -- -- 60
2021-01-18 00:00:00 7.9 2 Sudeste 3 Este 0 -- -- 67
2021-01-17 23:00:00 7.9 0 Calma 3 Sur 0 -- -- 71
2021-01-17 22:00:00 7.9 0 Calma 2 Este 0 -- -- 86
2021-01-17 21:00:00 8.5 0 Calma 4 Nordeste 0 -- -- 87
2021-01-17 20:00:00 9.3 0 Calma 4 Nordeste 0 -- -- 85
2021-01-17 19:00:00 11 5 Nordeste 8 Nordeste 0 -- -- 79
2021-01-17 18:00:00 15.2 0 Calma 6 Sudoeste 0 -- -- 65
2021-01-17 17:00:00 16.2 3 Sudoeste 9 Oeste 0 -- -- 61
2021-01-17 16:00:00 17.3 5 Sudoeste 12 Sudoeste 0 -- -- 58
2021-01-17 15:00:00 17.3 7 Sudoeste 11 Sudoeste 0 -- -- 57
2021-01-17 14:00:00 16 5 Sudoeste 10 Sudoeste 0 -- -- 59
2021-01-17 13:00:00 14.2 6 Sudoeste 11 Sudoeste 0 -- -- 64
2021-01-17 12:00:00 12.7 4 Sudoeste 6 Sudoeste 0 -- -- 67
2021-01-17 11:00:00 9.5 2 Sur 3 Sudoeste 0 -- -- 78
2021-01-17 10:00:00 6.6 0 Calma 2 Sudeste 0 -- -- 81
2021-01-17 09:00:00 5.2 0 Calma 2 Sudeste 0 -- -- 92
2021-01-17 08:00:00 5.4 0 Calma 4 Sudeste 0 -- -- 90
2021-01-17 07:00:00 5.5 0 Calma 3 Sudeste 0 -- -- 84
2021-01-17 06:00:00 5.9 2 Nordeste 4 Sudeste 0 -- -- 78
2021-01-17 05:00:00 5.9 0 Calma 2 Sur 0 -- -- 86
2021-01-17 04:00:00 6.3 0 Calma 4 Nordeste 0 -- -- 87
2021-01-17 03:00:00 6.6 2 Nordeste 4 Nordeste 0 -- -- 86
2021-01-17 02:00:00 7.6 4 Nordeste 8 Nordeste 0 -- -- 83
2021-01-17 01:00:00 7.8 0 Calma 8 Nordeste 0 -- -- 83
2021-01-17 00:00:00 7.6 6 Nordeste 10 Este 0 -- -- 83
2021-01-16 23:00:00 8.2 5 Nordeste 17 Nordeste 0 -- -- 84
2021-01-16 22:00:00 9.3 11 Nordeste 17 Nordeste 0 -- -- 82
2021-01-16 21:00:00 9.1 6 Nordeste 11 Norte 0 -- -- 82
2021-01-16 20:00:00 9.2 4 Nordeste 10 Nordeste 0 -- -- 82
2021-01-16 19:00:00 10.4 0 Calma 10 Sudoeste 0 -- -- 80
2021-01-16 18:00:00 13.4 3 Sudoeste 10 Sur 0 -- -- 67
2021-01-16 17:00:00 13.5 4 Nordeste 11 Nordeste 0 -- -- 57
2021-01-16 16:00:00 14.6 6 Nordeste 13 Nordeste 0 -- -- 43
2021-01-16 15:00:00 16.7 4 Nordeste 20 Nordeste 0 -- -- 32
2021-01-16 14:00:00 19.6 8 Este 24 Este 0 -- -- 20
2021-01-16 13:00:00 18.4 6 Sudeste 15 Este 0 -- -- 24
2021-01-16 12:00:00 16.1 2 Sudoeste 12 Este 0 -- -- 34
2021-01-16 11:00:00 12.8 0 Calma 5 Nordeste 0 -- -- 35
2021-01-16 10:00:00 9.1 0 Calma 5 Sur 0 -- -- 37
2021-01-16 09:00:00 8.4 2 Nordeste 8 Este 0 -- -- 36
2021-01-16 08:00:00 8.6 6 Nordeste 9 Este 0 -- -- 36
2021-01-16 07:00:00 10.5 2 Sur 18 Nordeste 0 -- -- 31
2021-01-16 06:00:00 8.5 5 Nordeste 10 Nordeste 0 -- -- 38
2021-01-16 05:00:00 8.2 0 Calma 10 Este 0 -- -- 48
2021-01-16 04:00:00 9 0 Calma 17 Nordeste 0 -- -- 47
2021-01-16 03:00:00 8.8 6 Nordeste 9 Nordeste 0 -- -- 47
2021-01-16 02:00:00 9 4 Nordeste 14 Nordeste 0 -- -- 49
2021-01-16 01:00:00 9.8 5 Este 13 Este 0 -- -- 43
2021-01-16 00:00:00 10.5 7 Este 13 Este 0 -- -- 45
2021-01-15 23:00:00 9.3 5 Nordeste 10 Nordeste 0 -- -- 44
2021-01-15 22:00:00 10.5 3 Nordeste 21 Nordeste 0 -- -- 47
2021-01-15 21:00:00 12.6 9 Nordeste 22 Nordeste 0 -- -- 38
2021-01-15 20:00:00 13 12 Nordeste 23 Nordeste 0 -- -- 30
2021-01-15 19:00:00 12.3 3 Este 14 Nordeste 0 -- -- 38
2021-01-15 18:00:00 16.2 3 Nordeste 12 Nordeste 0 -- -- 32
2021-01-15 17:00:00 19.5 4 Sur 10 Sur 0 -- -- 31
2021-01-15 16:00:00 20.7 5 Sudoeste 10 Sudoeste 0 -- -- 34
2021-01-15 15:00:00 19.6 5 Sudoeste 11 Sudoeste 0 -- -- 39
2021-01-15 14:00:00 18.8 4 Sudoeste 12 Sudoeste 0 -- -- 39
2021-01-15 13:00:00 16.5 6 Sudoeste 9 Sudoeste 0 -- -- 38
2021-01-15 12:00:00 13.7 2 Sudoeste 4 Sudoeste 0 -- -- 45
2021-01-15 11:00:00 10.9 0 Calma 2 Sudoeste 0 -- -- 47
2021-01-15 10:00:00 8.2 0 Calma 6 Nordeste 0 -- -- 45
2021-01-15 09:00:00 6.8 4 Nordeste 5 Nordeste 0 -- -- 50
2021-01-15 08:00:00 7.5 0 Calma 5 Nordeste 0 -- -- 44
2021-01-15 07:00:00 7.1 0 Calma 4 Nordeste 0 -- -- 45
2021-01-15 06:00:00 8.5 0 Calma 13 Norte 0 -- -- 44
2021-01-15 05:00:00 7.4 4 Este 7 Nordeste 0 -- -- 48
2021-01-15 04:00:00 7.6 0 Calma 10 Nordeste 0 -- -- 49
2021-01-15 03:00:00 8.6 7 Nordeste 15 Nordeste 0 -- -- 46
2021-01-15 02:00:00 9.2 9 Nordeste 14 Nordeste 0 -- -- 38
2021-01-15 01:00:00 8.6 4 Nordeste 9 Este 0 -- -- 41
2021-01-15 00:00:00 8.6 3 Norte 11 Norte 0 -- -- 43
2021-01-14 23:00:00 9.4 5 Nordeste 14 Nordeste 0 -- -- 34
2021-01-14 22:00:00 7.8 4 Nordeste 6 Nordeste 0 -- -- 57
2021-01-14 21:00:00 7.6 2 Nordeste 4 Nordeste 0 -- -- 63
2021-01-14 20:00:00 8.6 3 Nordeste 5 Nordeste 0 -- -- 55
2021-01-14 19:00:00 10.8 2 Sudeste 5 Nordeste 0 -- -- 56
2021-01-14 18:00:00 14.2 3 Sudeste 14 Nordeste 0 -- -- 44
2021-01-14 17:00:00 14.6 9 Nordeste 12 Nordeste 0 -- -- 44
2021-01-14 16:00:00 14.8 8 Nordeste 14 Este 0 -- -- 41
2021-01-14 15:00:00 15.1 9 Nordeste 14 Nordeste 0 -- -- 36
2021-01-14 14:00:00 14.5 7 Este 17 Nordeste 0 -- -- 38
2021-01-14 13:00:00 14.3 5 Nordeste 9 Este 0 -- -- 43
2021-01-14 12:00:00 12.9 3 Este 8 Este 0 -- -- 42
2021-01-14 11:00:00 10.5 0 Calma 6 Sudoeste 0 -- -- 46
2021-01-14 10:00:00 6.9 3 Nordeste 6 Este 0 -- -- 51
2021-01-14 09:00:00 6.7 3 Este 10 Nordeste 0 -- -- 45
2021-01-14 08:00:00 6.5 3 Nordeste 9 Nordeste 0 -- -- 43
2021-01-14 07:00:00 6.4 4 Nordeste 7 Nordeste 0 -- -- 48
2021-01-14 06:00:00 6.2 4 Nordeste 8 Nordeste 0 -- -- 50
2021-01-14 05:00:00 6.3 6 Nordeste 7 Nordeste 0 -- -- 50
2021-01-14 04:00:00 6.4 0 Calma 6 Nordeste 0 -- -- 51
2021-01-14 03:00:00 7.1 3 Este 6 Este 0 -- -- 47
2021-01-14 02:00:00 7.2 5 Nordeste 7 Nordeste 0 -- -- 44
2021-01-14 01:00:00 6.7 5 Nordeste 7 Este 0 -- -- 51
2021-01-14 00:00:00 7.1 0 Calma 9 Nordeste 0 -- -- 52
2021-01-13 23:00:00 6.9 3 Nordeste 5 Nordeste 0 -- -- 58
2021-01-13 22:00:00 6.9 3 Nordeste 6 Nordeste 0 -- -- 65
2021-01-13 21:00:00 7.7 3 Nordeste 4 Nordeste 0 -- -- 60
2021-01-13 20:00:00 7.7 0 Calma 4 Nordeste 0 -- -- 78
2021-01-13 19:00:00 9.2 2 Nordeste 6 Este 0 -- -- 71
2021-01-13 18:00:00 14.2 3 Sur 7 Oeste 0 -- -- 55
2021-01-13 17:00:00 16.1 4 Sudoeste 13 Sudoeste 0 -- -- 47
2021-01-13 16:00:00 16.1 7 Sudoeste 14 Oeste 0 -- -- 51
2021-01-13 15:00:00 15.4 6 Sudoeste 13 Sudoeste 0 -- -- 54
2021-01-13 14:00:00 15 6 Sudoeste 13 Oeste 0 -- -- 52
2021-01-13 13:00:00 12.4 2 Este 9 Este 0 -- -- 52
2021-01-13 12:00:00 11 3 Sudoeste 6 Este 0 -- -- 62
2021-01-13 11:00:00 8.9 4 Este 7 Sudeste 0 -- -- 63
2021-01-13 10:00:00 5.8 2 Este 9 Este 0 -- -- 68
2021-01-13 09:00:00 3.8 2 Este 3 Sudeste 0 -- -- 73
2021-01-13 08:00:00 3.8 0 Calma 4 Nordeste 0 -- -- 75
2021-01-13 07:00:00 3.6 0 Calma 2 Sudeste 0 -- -- 79
2021-01-13 06:00:00 3.6 0 Calma 2 Sudeste 0 -- -- 77
2021-01-13 05:00:00 4.2 0 Calma 5 Nordeste 0 -- -- 82
2021-01-13 04:00:00 4.7 4 Nordeste 5 Nordeste 0 -- -- 82
2021-01-13 03:00:00 4.4 0 Calma 2 Sudeste 0 -- -- 87
2021-01-13 02:00:00 4.8 0 Calma 4 Nordeste 0 -- -- 85
2021-01-13 01:00:00 5 3 Nordeste 4 Nordeste 0 -- -- 84
2021-01-13 00:00:00 5.2 2 Nordeste 5 Nordeste 0 -- -- 83
2021-01-12 23:00:00 5.2 0 Calma 4 Este 0 -- -- 85
2021-01-12 22:00:00 5.5 0 Calma 4 Sudeste 0 -- -- 82
2021-01-12 21:00:00 5.8 0 Calma 4 Nordeste 0 -- -- 82
2021-01-12 20:00:00 6.5 4 Nordeste 6 Nordeste 0 -- -- 82
2021-01-12 19:00:00 8.2 0 Calma 5 Sudoeste 0 -- -- 75
2021-01-12 18:00:00 12.7 3 Sudoeste 11 Sudoeste 0 -- -- 61
2021-01-12 17:00:00 14.2 4 Sudoeste 12 Sudoeste 0 -- -- 62
2021-01-12 16:00:00 13.9 5 Sur 14 Oeste 0 -- -- 61
2021-01-12 15:00:00 13.5 8 Sudoeste 20 Sudoeste 0 -- -- 53
2021-01-12 14:00:00 13.4 7 Sudoeste 17 Sudoeste 0 -- -- 51
2021-01-12 13:00:00 11.8 5 Sudoeste 10 Sudoeste 0 -- -- 56
2021-01-12 12:00:00 9.7 4 Sudoeste 7 Oeste 0 -- -- 59
2021-01-12 11:00:00 7.2 2 Sur 8 Este 0 -- -- 75
2021-01-12 10:00:00 5 3 Nordeste 8 Este 0 -- -- 69
2021-01-12 09:00:00 4.6 5 Nordeste 11 Nordeste 0 -- -- 69
2021-01-12 08:00:00 3.6 2 Este 5 Nordeste 0 -- -- 84
2021-01-12 07:00:00 3.8 3 Este 8 Este 0 -- -- 84
2021-01-12 06:00:00 3.6 3 Nordeste 4 Nordeste 0 -- -- 93
2021-01-12 05:00:00 3.6 0 Calma 4 Nordeste 0 -- -- 93
2021-01-12 04:00:00 3.6 0 Calma 3 Nordeste 0 -- -- 90
2021-01-12 03:00:00 4.2 3 Nordeste 6 Nordeste 0 -- -- 90
2021-01-12 02:00:00 4 0 Calma 2 Nordeste 0 -- -- 92
2021-01-12 01:00:00 4.4 0 Calma 3 Este 0 -- -- 90
2021-01-12 00:00:00 5.5 3 Nordeste 8 Nordeste 0 -- -- 83
2021-01-11 23:00:00 6 5 Nordeste 10 Nordeste 0 -- -- 83
2021-01-11 22:00:00 5.5 5 Nordeste 9 Nordeste 0 -- -- 87
2021-01-11 21:00:00 5.4 0 Calma 8 Este 0 -- -- 88
2021-01-11 20:00:00 5.9 3 Este 7 Nordeste 0 -- -- 87
2021-01-11 19:00:00 7.1 4 Nordeste 6 Nordeste 0 -- -- 81
2021-01-11 18:00:00 10.1 0 Calma 17 Sudoeste 0 -- -- 73
2021-01-11 17:00:00 12.7 7 Sudoeste 17 Sudoeste 0 -- -- 66
2021-01-11 16:00:00 11.6 8 Sudoeste 18 Sudoeste 0 -- -- 70
2021-01-11 15:00:00 12.3 10 Sudoeste 18 Sudoeste 0 -- -- 65
2021-01-11 14:00:00 11.1 4 Sudoeste 10 Sudoeste 0 -- -- 69
2021-01-11 13:00:00 8.8 3 Sudoeste 6 Sur 0 -- -- 86
2021-01-11 12:00:00 6.9 3 Sudoeste 4 Sudoeste 0 -- -- 89
2021-01-11 11:00:00 6 0 Calma 3 Este 0 -- -- 97
2021-01-11 10:00:00 4.9 0 Calma 3 Noroeste 0 -- -- 99
2021-01-11 09:00:00 4.1 0 Calma 9 Nordeste 0 -- -- 98
2021-01-11 08:00:00 3.9 5 Nordeste 9 Nordeste 0.2 -- -- 98
2021-01-11 07:00:00 3.9 3 Este 7 Este 0.2 -- -- 98
2021-01-11 06:00:00 3.7 0 Calma 10 Sudoeste 0.4 -- -- 96
2021-01-11 05:00:00 4.1 3 Sudoeste 23 Norte 1.6 -- -- 94
2021-01-11 04:00:00 4.2 9 Nordeste 13 Nordeste 0.6 -- -- 96
2021-01-11 03:00:00 4.4 6 Nordeste 21 Nordeste 0 -- -- 93
2021-01-11 02:00:00 4.6 10 Nordeste 15 Nordeste 0 -- -- 91
2021-01-11 01:00:00 4.7 4 Nordeste 14 Nordeste 0 -- -- 91
2021-01-11 00:00:00 3.8 5 Nordeste 12 Nordeste 0 -- -- 96
2021-01-10 23:00:00 3.5 3 Nordeste 6 Nordeste 0.2 -- -- 98
2021-01-10 22:00:00 3.2 2 Nordeste 6 Nordeste 2.4 -- -- 97
2021-01-10 21:00:00 3.8 0 Calma 4 Sudoeste 3 -- -- 98
2021-01-10 20:00:00 3.8 0 Calma 12 Nordeste 0.8 -- -- 97
2021-01-10 19:00:00 3.7 3 Nordeste 10 Nordeste 0.4 -- -- 95
2021-01-10 18:00:00 3.9 3 Nordeste 14 Nordeste 0.6 -- -- 94
2021-01-10 17:00:00 4.3 5 Nordeste 12 Este 0.6 -- -- 90
2021-01-10 16:00:00 5.4 0 Calma 9 Este 0.8 -- -- 87
2021-01-10 15:00:00 6.5 3 Sur 9 Nordeste 0 -- -- 82
2021-01-10 14:00:00 7.2 0 Calma 12 Sudoeste 0 -- -- 71
2021-01-10 13:00:00 6.8 2 Sudoeste 10 Sudoeste 0 -- -- 82
2021-01-10 12:00:00 5.8 4 Sudoeste 9 Sudoeste 0 -- -- 89
2021-01-10 11:00:00 4.8 5 Nordeste 7 Nordeste 0 -- -- 95
2021-01-10 10:00:00 3.8 0 Calma 3 Nordeste 0 -- -- 97
2021-01-10 09:00:00 2.8 0 Calma 2 Sudeste 0 -- -- 95
2021-01-10 08:00:00 2.7 0 Calma 3 Sudoeste 0 -- -- 92
2021-01-10 07:00:00 2.9 0 Calma 11 Sudoeste 0 -- -- 88
2021-01-10 06:00:00 3 4 Oeste 17 Oeste 0 -- -- 86
2021-01-10 05:00:00 2.6 5 Sudoeste 22 Sudoeste 0 -- -- 91
2021-01-10 04:00:00 2.4 6 Sudoeste 12 Sudoeste 0 -- -- 97
2021-01-10 03:00:00 2.4 0 Calma 4 Sudeste 0 -- -- 98
2021-01-10 02:00:00 2.7 0 Calma 3 Sudoeste 0 -- -- 97
2021-01-10 01:00:00 3.2 0 Calma 6 Sudoeste 0 -- -- 97
2021-01-10 00:00:00 3.6 0 Calma 2 Este 0 -- -- 97
2021-01-09 23:00:00 4.2 0 Calma 4 Sur 0 -- -- 95
2021-01-09 22:00:00 4.7 0 Calma 2 Sudoeste 0 -- -- 96
2021-01-09 21:00:00 5 0 Calma 4 Este 0.2 -- -- 94
2021-01-09 20:00:00 5.7 0 Calma 15 Sudoeste 0.8 -- -- 93
2021-01-09 19:00:00 6.6 3 Sur 10 Oeste 0.2 -- -- 85
2021-01-09 18:00:00 7.6 4 Sudoeste 23 Sudoeste 0 -- -- 77
2021-01-09 17:00:00 9.2 9 Sudoeste 39 Sudoeste 0 -- -- 57
2021-01-09 16:00:00 11 16 Sudoeste 43 Sudoeste 0 -- -- 51
2021-01-09 15:00:00 11.5 19 Sudoeste 37 Sudoeste 0 -- -- 50
2021-01-09 14:00:00 11.2 19 Sudoeste 40 Sudoeste 0 -- -- 47
2021-01-09 13:00:00 10.4 18 Sudoeste 37 Sudoeste 0 -- -- 57
2021-01-09 12:00:00 8.5 17 Sudoeste 47 Sudoeste 0 -- -- 66
2021-01-09 11:00:00 6.8 19 Sudoeste 49 Sudoeste 0 -- -- 70
2021-01-09 10:00:00 4.8 14 Sudoeste 42 Sudoeste 0 -- -- 78
2021-01-09 09:00:00 5.1 14 Sudoeste 31 Sudoeste 0 -- -- 79
2021-01-09 08:00:00 6.2 13 Sudoeste 34 Sudoeste 0 -- -- 80
2021-01-09 07:00:00 7.2 15 Sudoeste 40 Sudoeste 0 -- -- 84
2021-01-09 06:00:00 7.3 19 Sudoeste 45 Sudoeste 0 -- -- 84
2021-01-09 05:00:00 7.8 23 Sudoeste 58 Sudoeste 0 -- -- 81
2021-01-09 04:00:00 8.1 23 Sudoeste 46 Sudoeste 0 -- -- 84
2021-01-09 03:00:00 8.5 24 Sudoeste 63 Sudoeste 0 -- -- 89
2021-01-09 02:00:00 9 23 Sudoeste 50 Sudoeste 0 -- -- 90
2021-01-09 01:00:00 9.1 16 Sudoeste 35 Sudoeste 0.2 -- -- 98
2021-01-09 00:00:00 10.1 12 Sudoeste 22 Sudoeste 0 -- -- 99
2021-01-08 23:00:00 10.6 4 Sudoeste 16 Sudoeste 0 -- -- 100
2021-01-08 22:00:00 10.8 5 Nordeste 28 Nordeste 8 -- -- 100
2021-01-08 21:00:00 10.4 6 Sudoeste 35 Nordeste 10.8 -- -- 100
2021-01-08 20:00:00 10.3 9 Este 41 Norte 4 -- -- 100
2021-01-08 19:00:00 10.6 12 Nordeste 33 Nordeste 10 -- -- 100
2021-01-08 18:00:00 10.4 7 Nordeste 28 Nordeste 3.4 -- -- 100
2021-01-08 17:00:00 10.2 11 Nordeste 36 Nordeste 5.4 -- -- 100
2021-01-08 16:00:00 9.9 11 Nordeste 44 Nordeste 6.6 -- -- 99
2021-01-08 15:00:00 10 9 Nordeste 40 Nordeste 7.8 -- -- 99
2021-01-08 14:00:00 9.8 5 Nordeste 24 Nordeste 12 -- -- 98
2021-01-08 13:00:00 9.7 8 Nordeste 38 Norte 3.8 -- -- 96
2021-01-08 12:00:00 9.3 8 Nordeste 26 Nordeste 4.2 -- -- 99
2021-01-08 11:00:00 9.3 6 Nordeste 21 Norte 3.6 -- -- 99
2021-01-08 10:00:00 9.2 6 Este 23 Nordeste 3.4 -- -- 99
2021-01-08 09:00:00 9.2 10 Nordeste 24 Nordeste 2 -- -- 98
2021-01-08 08:00:00 9.2 9 Nordeste 23 Nordeste -- -- -- 98
2021-01-08 07:00:00 9.5 16 Nordeste 31 Nordeste -- -- -- 97
2021-01-08 06:00:00 9.1 7 Norte 27 Nordeste -- -- -- 98
2021-01-08 05:00:00 9.2 11 Nordeste 23 Nordeste -- -- -- 96
2021-01-08 04:00:00 9.2 10 Nordeste 26 Nordeste -- -- -- 95
2021-01-08 03:00:00 9 6 Norte 18 Norte -- -- -- 97
2021-01-08 02:00:00 9 4 Norte 17 Nordeste -- -- -- 97
2021-01-08 01:00:00 8.9 4 Oeste 20 Nordeste -- -- -- 98
2021-01-08 00:00:00 8.6 5 Nordeste 10 Este -- -- -- 99
2021-01-07 23:00:00 8.7 3 Nordeste 17 Nordeste -- -- -- 98
2021-01-07 22:00:00 8.8 4 Nordeste 15 Nordeste -- -- -- 98
2021-01-07 21:00:00 8.9 2 Norte 17 Nordeste -- -- -- 98
2021-01-07 20:00:00 8.8 10 Nordeste 19 Nordeste -- -- -- 99
2021-01-07 19:00:00 8.9 4 Nordeste 12 Nordeste -- -- -- 98
2021-01-07 18:00:00 9.1 4 Nordeste 12 Nordeste -- -- -- 98
2021-01-07 17:00:00 9.4 3 Nordeste 13 Nordeste -- -- -- 97
2021-01-07 16:00:00 9.3 6 Nordeste 15 Nordeste -- -- -- 98
2021-01-07 15:00:00 9.6 4 Nordeste 9 Nordeste -- -- -- 97
2021-01-07 14:00:00 9.4 4 Nordeste 17 Nordeste -- -- -- 96
2021-01-07 13:00:00 9 6 Nordeste 13 Nordeste -- -- -- 98
2021-01-07 12:00:00 8.8 3 Este 9 Este -- -- -- 98
2021-01-07 11:00:00 8.3 4 Este 13 Este -- -- -- 98
2021-01-07 10:00:00 8 3 Este 12 Nordeste -- -- -- 98
2021-01-07 09:00:00 7.8 2 Nordeste 18 Este -- -- -- 97
2021-01-07 08:00:00 8 4 Nordeste 24 Nordeste -- -- -- 96
2021-01-07 07:00:00 8 10 Nordeste 36 Nordeste -- -- -- 95
2021-01-07 06:00:00 8 10 Nordeste 30 Nordeste -- -- -- 93
2021-01-07 05:00:00 7.9 14 Nordeste 42 Norte -- -- -- 92
2021-01-07 04:00:00 7.9 18 Nordeste 35 Nordeste -- -- -- 90
2021-01-07 03:00:00 7.5 21 Nordeste 44 Nordeste -- -- -- 89
2021-01-07 02:00:00 7 23 Nordeste 52 Nordeste -- -- -- 88
2021-01-07 01:00:00 7.1 24 Nordeste 52 Nordeste -- -- -- 90
2021-01-07 00:00:00 7.2 21 Nordeste 40 Nordeste -- -- -- 94
2021-01-06 23:00:00 7.4 15 Nordeste 30 Nordeste -- -- -- 94
2021-01-06 22:00:00 7.5 6 Nordeste 25 Nordeste -- -- -- 96
2021-01-06 21:00:00 7.6 11 Nordeste 34 Nordeste -- -- -- 94
2021-01-06 20:00:00 7.4 12 Nordeste 33 Nordeste -- -- -- 93
2021-01-06 19:00:00 7.4 10 Nordeste 28 Nordeste -- -- -- 93
2021-01-06 18:00:00 7.6 12 Nordeste 22 Nordeste -- -- -- 92
2021-01-06 17:00:00 7.9 6 Nordeste 23 Nordeste -- -- -- 91
2021-01-06 16:00:00 8.4 6 Nordeste 24 Norte -- -- -- 87
2021-01-06 15:00:00 8.6 7 Nordeste 20 Nordeste -- -- -- 85
2021-01-06 14:00:00 8.5 6 Nordeste 24 Nordeste -- -- -- 87
2021-01-06 13:00:00 8.6 5 Este 20 Este -- -- -- 86
2021-01-06 12:00:00 8.5 7 Nordeste 19 Norte -- -- -- 84
2021-01-06 11:00:00 8.3 8 Nordeste 18 Este -- -- -- 85
2021-01-06 10:00:00 7.9 4 Nordeste 12 Nordeste -- -- -- 85
2021-01-06 09:00:00 7.6 5 Nordeste 13 Nordeste -- -- -- 83
2021-01-06 08:00:00 7.1 3 Nordeste 8 Nordeste -- -- -- 90
2021-01-06 07:00:00 7 3 Nordeste 8 Nordeste -- -- -- 91
2021-01-06 06:00:00 6.8 3 Nordeste 6 Nordeste -- -- -- 94
2021-01-06 05:00:00 6.8 3 Este 10 Nordeste -- -- -- 94
2021-01-06 04:00:00 7 3 Este 7 Nordeste -- -- -- 93
2021-01-06 03:00:00 7.1 4 Nordeste 10 Nordeste -- -- -- 93
2021-01-06 02:00:00 7.3 3 Nordeste 11 Nordeste -- -- -- 90
2021-01-06 01:00:00 7.1 6 Nordeste 12 Nordeste -- -- -- 93
2021-01-06 00:00:00 7.2 2 Nordeste 5 Norte -- -- -- 95
2021-01-05 23:00:00 7.7 0 Calma 9 Sudoeste -- -- -- 93
2021-01-05 22:00:00 7.7 3 Sur 11 Nordeste -- -- -- 88
2021-01-05 21:00:00 8.2 3 Este 9 Nordeste -- -- -- 85
2021-01-05 20:00:00 8.5 0 Calma 8 Nordeste -- -- -- 82
2021-01-05 19:00:00 8.5 0 Calma 3 Nordeste -- -- -- 82
2021-01-05 18:00:00 8.9 2 Nordeste 7 Nordeste -- -- -- 80
2021-01-05 17:00:00 9.6 4 Nordeste 10 Nordeste -- -- -- 73
2021-01-05 16:00:00 10.5 3 Sur 9 Sur -- -- -- 68
2021-01-05 15:00:00 11 4 Sudoeste 12 Sudoeste -- -- -- 66
2021-01-05 14:00:00 12.1 4 Sudoeste 12 Sudoeste -- -- -- 58
2021-01-05 13:00:00 11.3 5 Sudoeste 13 Sudoeste -- -- -- 65
2021-01-05 12:00:00 9.3 0 Calma 3 Sudoeste -- -- -- 73
2021-01-05 11:00:00 8 0 Calma 2 Sudoeste -- -- -- 77
2021-01-05 10:00:00 5.5 0 Calma 0 Calma -- -- -- 85
2021-01-05 09:00:00 5.4 0 Calma 2 Sudeste -- -- -- 81
2021-01-05 08:00:00 6 2 Nordeste 4 Nordeste -- -- -- 76
2021-01-05 07:00:00 6.5 3 Nordeste 5 Nordeste -- -- -- 74
2021-01-05 06:00:00 6.2 0 Calma 2 Nordeste -- -- -- 72
2021-01-05 05:00:00 6.1 0 Calma 8 Este -- -- -- 69
2021-01-05 04:00:00 5.8 4 Este 7 Este -- -- -- 72
2021-01-05 03:00:00 5.5 3 Nordeste 6 Nordeste -- -- -- 74
2021-01-05 02:00:00 5.6 0 Calma 4 Nordeste -- -- -- 73
2021-01-05 01:00:00 6.5 2 Sudoeste 22 Nordeste -- -- -- 68
2021-01-05 00:00:00 5.4 3 Sudoeste 7 Sur -- -- -- 72
2021-01-04 23:00:00 5 0 Calma 5 Sur -- -- -- 70
2021-01-04 22:00:00 6.3 2 Sudoeste 8 Sudoeste -- -- -- 64
2021-01-04 21:00:00 6.4 2 Este 8 Oeste -- -- -- 63
2021-01-04 20:00:00 6.9 4 Sudoeste 11 Sudoeste -- -- -- 61
2021-01-04 19:00:00 8.2 3 Norte 16 Sudoeste -- -- -- 55
2021-01-04 18:00:00 12.7 5 Sudoeste 16 Sudoeste -- -- -- 45
2021-01-04 17:00:00 14.6 6 Sudoeste 20 Sudoeste -- -- -- 40
2021-01-04 16:00:00 14.1 5 Oeste 24 Sudoeste -- -- -- 40
2021-01-04 15:00:00 14.6 7 Sudoeste 31 Sudoeste -- -- -- 40
2021-01-04 14:00:00 12.8 9 Oeste 21 Oeste -- -- -- 46
2021-01-04 13:00:00 12.3 4 Sudoeste 18 Sudoeste -- -- -- 50
2021-01-04 12:00:00 10.2 4 Sudoeste 22 Sudoeste -- -- -- 54
2021-01-04 11:00:00 8.1 8 Sudoeste 25 Sudoeste -- -- -- 60
2021-01-04 10:00:00 4.7 3 Sudoeste 8 Sudoeste -- -- -- 72
2021-01-04 09:00:00 5.3 2 Sur 21 Nordeste -- -- -- 67
2021-01-04 08:00:00 6.7 9 Norte 26 Nordeste -- -- -- 59
2021-01-04 07:00:00 6.1 12 Norte 26 Norte -- -- -- 62
2021-01-04 06:00:00 5.7 2 Nordeste 17 Norte -- -- -- 57
2021-01-04 05:00:00 6.9 10 Norte 31 Norte -- -- -- 52
2021-01-04 04:00:00 4.5 4 Nordeste 18 Norte -- -- -- 57
2021-01-04 03:00:00 3.3 3 Este 8 Sudeste -- -- -- 63
2021-01-04 02:00:00 3.4 2 Sur 10 Sur -- -- -- 60
2021-01-04 01:00:00 3.3 3 Sudeste 8 Nordeste -- -- -- 58
2021-01-04 00:00:00 3.2 2 Sudeste 4 Sudoeste -- -- -- 53
2021-01-03 23:00:00 3.9 4 Nordeste 7 Nordeste -- -- -- 52
2021-01-03 22:00:00 4.1 0 Calma 6 Sur -- -- -- 52
2021-01-03 21:00:00 5 2 Este 10 Este -- -- -- 50
2021-01-03 20:00:00 5.9 3 Este 14 Oeste -- -- -- 45
2021-01-03 19:00:00 7.2 0 Calma 17 Oeste -- -- -- 41
2021-01-03 18:00:00 12 5 Sudoeste 20 Sudoeste -- -- -- 29
2021-01-03 17:00:00 13.5 10 Sudoeste 23 Sudoeste -- -- -- 32
2021-01-03 16:00:00 12.7 5 Oeste 19 Oeste -- -- -- 33
2021-01-03 15:00:00 11.3 8 Nordeste 15 Sudoeste -- -- -- 35
2021-01-03 14:00:00 11.1 3 Nordeste 11 Nordeste -- -- -- 35
2021-01-03 13:00:00 10.5 3 Sudeste 8 Sur -- -- -- 35
2021-01-03 12:00:00 8.8 0 Calma 9 Nordeste -- -- -- 40
2021-01-03 11:00:00 7.2 5 Este 13 Nordeste -- -- -- 37
2021-01-03 10:00:00 5.1 6 Nordeste 16 Nordeste -- -- -- 41
2021-01-03 09:00:00 2.1 0 Calma 3 Sudeste -- -- -- 54
2021-01-03 08:00:00 2.2 0 Calma 7 Nordeste -- -- -- 61
2021-01-03 07:00:00 2.9 4 Nordeste 10 Nordeste -- -- -- 61
2021-01-03 06:00:00 3.3 5 Norte 10 Norte -- -- -- 50
2021-01-03 05:00:00 3 2 Norte 15 Este -- -- -- 57
2021-01-03 04:00:00 5.2 5 Norte 24 Norte -- -- -- 42
2021-01-03 03:00:00 3.7 3 Nordeste 21 Nordeste -- -- -- 57
2021-01-03 02:00:00 5.4 9 Norte 33 Nordeste -- -- -- 50
2021-01-03 01:00:00 4.1 4 Este 19 Nordeste -- -- -- 60
2021-01-03 00:00:00 5.6 6 Nordeste 21 Nordeste -- -- -- 56
2021-01-02 23:00:00 5.3 5 Este 17 Sur -- -- -- 63
2021-01-02 22:00:00 5.1 3 Nordeste 13 Nordeste -- -- -- 62
2021-01-02 21:00:00 5.3 5 Este 10 Nordeste -- -- -- 59
2021-01-02 20:00:00 6.4 4 Sudeste 18 Nordeste -- -- -- 54
2021-01-02 19:00:00 7.2 4 Sudeste 13 Nordeste -- -- -- 50
2021-01-02 18:00:00 10.2 8 Sudeste 23 Este -- -- -- 36
2021-01-02 17:00:00 13.1 7 Sudoeste 22 Sudoeste -- -- -- 30
2021-01-02 16:00:00 13.7 10 Sudoeste 36 Sudoeste -- -- -- 32
2021-01-02 15:00:00 13.5 17 Sudoeste 32 Sudoeste -- -- -- 28
2021-01-02 14:00:00 13.4 8 Sudoeste 31 Sudoeste -- -- -- 34